Private Wetterstation Sandau
Wetterdaten: Woche 29.04.13 - 05.05.13 (KW18)
Datum Zeit Temp. A. Feuchte A. Luftdruck Regen Wind Richtung Taupunkt Windchill
29.04.2013 00:00 8,6 C 70 % 1015,8 hPa 0,0 l/m 3,5 km/h (1 Bft) S-SW 3,4 C 8,4 C
29.04.2013 01:00 8,4 C 72 % 1015,7 hPa 0,0 l/m 2,7 km/h (1 Bft) S-SO 3,6 C 8,3 C
29.04.2013 02:00 8,2 C 73 % 1015,1 hPa 0,0 l/m 1,7 km/h (1 Bft) S 3,7 C 8,2 C
29.04.2013 03:00 8,1 C 76 % 1014,8 hPa 0,0 l/m 2,0 km/h (1 Bft) S-SO 4,2 C 8,1 C
29.04.2013 04:00 8,3 C 77 % 1014,3 hPa 0,0 l/m 5,0 km/h (1 Bft) S-SW 4,5 C 7,8 C
29.04.2013 05:00 8,4 C 78 % 1014,0 hPa 0,0 l/m 2,7 km/h (1 Bft) S 4,8 C 8,3 C
29.04.2013 06:00 8,6 C 79 % 1014,0 hPa 0,0 l/m 4,2 km/h (1 Bft) S-SW 5,2 C 8,1 C
29.04.2013 07:00 8,7 C 81 % 1014,0 hPa 0,0 l/m 7,5 km/h (2 Bft) S-SW 5,6 C 7,8 C
29.04.2013 08:00 9,5 C 79 % 1014,2 hPa 0,0 l/m 8,9 km/h (2 Bft) SW 6,2 C 8,4 C
29.04.2013 09:00 11,1 C 75 % 1014,1 hPa 0,0 l/m 11,3 km/h (2 Bft) SW 6,7 C 11,1 C
29.04.2013 10:00 13,0 C 64 % 1014,5 hPa 0,0 l/m 12,8 km/h (3 Bft) W-SW 6,4 C 13,0 C
29.04.2013 11:00 14,5 C 54 % 1014,6 hPa 0,0 l/m 15,2 km/h (3 Bft) W-SW 5,3 C 14,5 C
29.04.2013 12:00 15,0 C 50 % 1014,6 hPa 0,0 l/m 15,7 km/h (3 Bft) W 4,6 C 15,0 C
29.04.2013 13:00 15,8 C 47 % 1014,6 hPa 0,0 l/m 14,3 km/h (3 Bft) W-SW 4,5 C 15,8 C
29.04.2013 14:00 16,8 C 41 % 1015,1 hPa 0,0 l/m 23,1 km/h (4 Bft) SW 3,6 C 16,8 C
29.04.2013 15:00 16,6 C 40 % 1015,1 hPa 0,0 l/m 17,0 km/h (3 Bft) W 3,0 C 16,6 C
29.04.2013 16:00 16,4 C 40 % 1015,5 hPa 0,0 l/m 19,8 km/h (4 Bft) W 2,6 C 16,4 C
29.04.2013 17:00 16,2 C 41 % 1016,3 hPa 0,0 l/m 16,3 km/h (3 Bft) W-NW 2,8 C 16,2 C
29.04.2013 18:00 15,0 C 45 % 1017,1 hPa 0,0 l/m 14,7 km/h (3 Bft) NW 3,1 C 15,0 C
29.04.2013 19:00 13,5 C 49 % 1017,6 hPa 0,0 l/m 13,4 km/h (3 Bft) W-NW 3,0 C 13,5 C
29.04.2013 20:00 12,0 C 53 % 1018,3 hPa 0,0 l/m 9,5 km/h (2 Bft) W-SW 2,6 C 12,0 C
29.04.2013 21:00 10,4 C 58 % 1019,0 hPa 0,0 l/m 6,9 km/h (2 Bft) W 2,6 C 10,2 C
29.04.2013 22:00 9,1 C 64 % 1019,5 hPa 0,0 l/m 6,3 km/h (2 Bft) W-SW 2,5 C 8,4 C
29.04.2013 23:00 8,4 C 69 % 1020,1 hPa 0,0 l/m 9,8 km/h (2 Bft) W 3,0 C 6,9 C
30.04.2013 00:00 7,9 C 72 % 1020,4 hPa 0,0 l/m 4,8 km/h (1 Bft) W-SW 3,1 C 7,4 C
30.04.2013 01:00 7,4 C 74 % 1020,5 hPa 0,0 l/m 5,8 km/h (1 Bft) W-SW 3,0 C 6,7 C
30.04.2013 02:00 7,1 C 75 % 1020,9 hPa 0,0 l/m 6,2 km/h (2 Bft) W-SW 3,0 C 6,1 C
30.04.2013 03:00 6,7 C 76 % 1021,3 hPa 0,0 l/m 3,5 km/h (1 Bft) SW 2,8 C 6,6 C
30.04.2013 04:00 6,0 C 78 % 1021,6 hPa 0,0 l/m 1,5 km/h (1 Bft) S 2,4 C 6,0 C
30.04.2013 05:00 5,4 C 80 % 1021,8 hPa 0,0 l/m 1,3 km/h (1 Bft) S-SO 2,2 C 5,3 C
30.04.2013 06:00 5,3 C 81 % 1022,3 hPa 0,0 l/m 0,5 km/h (0 Bft) S 2,3 C 5,3 C
30.04.2013 07:00 8,1 C 76 % 1022,8 hPa 0,0 l/m 4,4 km/h (1 Bft) S-SW 4,1 C 7,7 C
30.04.2013 08:00 10,3 C 67 % 1023,0 hPa 0,0 l/m 8,1 km/h (2 Bft) W 4,5 C 9,9 C
30.04.2013 09:00 11,9 C 59 % 1023,3 hPa 0,0 l/m 7,9 km/h (2 Bft) W 4,2 C 11,9 C
30.04.2013 10:00 13,9 C 52 % 1023,4 hPa 0,0 l/m 6,6 km/h (2 Bft) W-NW 4,2 C 13,9 C
30.04.2013 11:00 15,6 C 45 % 1023,4 hPa 0,0 l/m 6,5 km/h (2 Bft) W-SW 3,6 C 15,6 C
30.04.2013 12:00 15,7 C 43 % 1023,2 hPa 0,0 l/m 4,7 km/h (1 Bft) W-NW 3,1 C 15,7 C
30.04.2013 13:00 16,1 C 41 % 1023,1 hPa 0,0 l/m 4,0 km/h (1 Bft) NW 2,8 C 16,1 C
30.04.2013 14:00 17,3 C 38 % 1022,9 hPa 0,0 l/m 2,7 km/h (1 Bft) W 3,0 C 17,3 C
30.04.2013 15:00 17,8 C 36 % 1022,7 hPa 0,0 l/m 5,3 km/h (1 Bft) W 2,5 C 17,8 C
30.04.2013 16:00 17,3 C 38 % 1022,7 hPa 0,0 l/m 4,3 km/h (1 Bft) N 2,7 C 17,3 C
30.04.2013 17:00 16,9 C 38 % 1022,7 hPa 0,0 l/m 4,6 km/h (1 Bft) N-NO 2,5 C 16,9 C
30.04.2013 18:00 14,2 C 44 % 1022,9 hPa 0,0 l/m 9,1 km/h (2 Bft) N 2,0 C 14,2 C
30.04.2013 19:00 13,1 C 45 % 1023,3 hPa 0,0 l/m 5,5 km/h (1 Bft) N-NO 1,6 C 13,1 C
30.04.2013 20:00 12,4 C 48 % 1023,8 hPa 0,0 l/m 4,2 km/h (1 Bft) N-NO 1,6 C 12,4 C
30.04.2013 21:00 11,3 C 51 % 1024,4 hPa 0,0 l/m 1,6 km/h (1 Bft) N-NO 1,6 C 11,3 C
30.04.2013 22:00 10,3 C 56 % 1024,7 hPa 0,0 l/m 2,7 km/h (1 Bft) N-NO 1,8 C 10,3 C
30.04.2013 23:00 9,5 C 60 % 1025,2 hPa 0,0 l/m 2,1 km/h (1 Bft) O-NO 2,0 C 9,5 C
01.05.2013 00:00 8,8 C 65 % 1025,7 hPa 0,0 l/m 4,8 km/h (1 Bft) O-NO 2,6 C 8,4 C
01.05.2013 01:00 7,6 C 70 % 1026,1 hPa 0,0 l/m 4,2 km/h (1 Bft) O-NO 2,5 C 7,2 C
01.05.2013 02:00 6,8 C 72 % 1026,3 hPa 0,0 l/m 2,0 km/h (1 Bft) NO 2,1 C 6,8 C
01.05.2013 03:00 6,3 C 73 % 1026,6 hPa 0,0 l/m 1,3 km/h (1 Bft) N-NO 1,8 C 6,3 C
01.05.2013 04:00 5,8 C 74 % 1026,7 hPa 0,0 l/m 0,7 km/h (0 Bft) O-NO 1,5 C 5,8 C
01.05.2013 05:00 5,3 C 75 % 1027,0 hPa 0,0 l/m 0,4 km/h (0 Bft) N-NO 1,3 C 5,3 C
01.05.2013 06:00 5,5 C 76 % 1027,3 hPa 0,0 l/m 1,1 km/h (1 Bft) NO 1,6 C 5,5 C
01.05.2013 07:00 8,1 C 67 % 1027,5 hPa 0,0 l/m 4,3 km/h (1 Bft) NO 2,4 C 7,7 C
01.05.2013 08:00 9,2 C 66 % 1027,7 hPa 0,0 l/m 6,1 km/h (2 Bft) O 3,0 C 8,5 C
01.05.2013 09:00 11,4 C 59 % 1027,8 hPa 0,0 l/m 6,0 km/h (2 Bft) O-NO 3,8 C 11,4 C
01.05.2013 10:00 13,3 C 53 % 1027,6 hPa 0,0 l/m 7,2 km/h (2 Bft) O-SO 3,8 C 13,3 C
01.05.2013 11:00 15,3 C 47 % 1027,1 hPa 0,0 l/m 6,8 km/h (2 Bft) O-NO 4,0 C 15,3 C
01.05.2013 12:00 16,5 C 41 % 1026,6 hPa 0,0 l/m 7,0 km/h (2 Bft) SO 3,4 C 16,5 C
01.05.2013 13:00 17,7 C 38 % 1025,8 hPa 0,0 l/m 9,2 km/h (2 Bft) S-SO 3,2 C 17,7 C
01.05.2013 14:00 17,5 C 39 % 1025,3 hPa 0,0 l/m 6,3 km/h (2 Bft) O 3,6 C 17,5 C
01.05.2013 15:00 17,6 C 40 % 1024,7 hPa 0,0 l/m 5,9 km/h (2 Bft) O-NO 3,9 C 17,6 C
01.05.2013 16:00 17,4 C 41 % 1024,0 hPa 0,0 l/m 5,3 km/h (1 Bft) O-NO 3,9 C 17,4 C
01.05.2013 17:00 17,2 C 42 % 1023,5 hPa 0,0 l/m 6,5 km/h (2 Bft) O-SO 4,1 C 17,2 C
01.05.2013 18:00 17,0 C 44 % 1023,0 hPa 0,0 l/m 4,6 km/h (1 Bft) S-SO 4,5 C 17,0 C
01.05.2013 19:00 16,0 C 47 % 1023,0 hPa 0,0 l/m 3,4 km/h (1 Bft) SO 4,8 C 16,0 C
01.05.2013 20:00 14,8 C 53 % 1023,2 hPa 0,0 l/m 0,8 km/h (0 Bft) SO 5,3 C 14,8 C
01.05.2013 21:00 14,0 C 56 % 1023,1 hPa 0,0 l/m 0,7 km/h (0 Bft) O-NO 5,4 C 14,0 C
01.05.2013 22:00 13,2 C 60 % 1022,8 hPa 0,0 l/m 1,3 km/h (1 Bft) O-NO 5,5 C 13,2 C
01.05.2013 23:00 12,6 C 63 % 1022,6 hPa 0,0 l/m 0,1 km/h (0 Bft) O-NO 5,7 C 12,6 C
02.05.2013 00:00 12,2 C 65 % 1022,8 hPa 0,0 l/m 1,3 km/h (1 Bft) NO 5,9 C 12,2 C
02.05.2013 01:00 11,3 C 69 % 1022,8 hPa 0,0 l/m 3,9 km/h (1 Bft) O 5,7 C 11,3 C
02.05.2013 02:00 9,8 C 70 % 1022,3 hPa 0,0 l/m 3,0 km/h (1 Bft) O-NO 4,6 C 9,8 C
02.05.2013 03:00 8,6 C 72 % 1022,1 hPa 0,0 l/m 3,8 km/h (1 Bft) O-NO 3,7 C 8,4 C
02.05.2013 04:00 7,8 C 73 % 1021,7 hPa 0,0 l/m 3,4 km/h (1 Bft) O 3,4 C 7,7 C
02.05.2013 05:00 7,3 C 75 % 1021,5 hPa 0,0 l/m 2,3 km/h (1 Bft) O-NO 3,3 C 7,3 C
02.05.2013 06:00 7,7 C 75 % 1021,5 hPa 0,0 l/m 1,8 km/h (1 Bft) NO 3,6 C 7,7 C
02.05.2013 07:00 9,1 C 74 % 1021,6 hPa 0,0 l/m 2,4 km/h (1 Bft) O-NO 4,6 C 9,0 C
02.05.2013 08:00 10,2 C 72 % 1022,1 hPa 0,0 l/m 2,2 km/h (1 Bft) NO 5,4 C 10,2 C
02.05.2013 09:00 11,2 C 68 % 1022,4 hPa 0,0 l/m 3,1 km/h (1 Bft) O-NO 5,4 C 11,2 C
02.05.2013 10:00 12,8 C 63 % 1022,3 hPa 0,0 l/m 4,6 km/h (1 Bft) NO 6,0 C 12,8 C
02.05.2013 11:00 14,1 C 58 % 1022,6 hPa 0,0 l/m 4,7 km/h (1 Bft) O-NO 6,0 C 14,1 C
02.05.2013 12:00 15,2 C 57 % 1022,4 hPa 0,0 l/m 5,5 km/h (1 Bft) O-NO 6,7 C 15,2 C
02.05.2013 13:00 17,1 C 52 % 1022,2 hPa 0,0 l/m 5,6 km/h (1 Bft) O-SO 7,2 C 17,1 C
02.05.2013 14:00 17,2 C 49 % 1022,1 hPa 0,0 l/m 5,9 km/h (2 Bft) NO 6,5 C 17,2 C
02.05.2013 15:00 17,0 C 49 % 1021,7 hPa 0,0 l/m 7,1 km/h (2 Bft) NO 6,1 C 17,0 C
02.05.2013 16:00 16,6 C 52 % 1021,4 hPa 0,0 l/m 8,2 km/h (2 Bft) O-NO 6,6 C 16,6 C
02.05.2013 17:00 16,0 C 55 % 1021,3 hPa 0,0 l/m 5,3 km/h (1 Bft) NO 6,8 C 16,0 C
02.05.2013 18:00 15,4 C 52 % 1021,3 hPa 0,0 l/m 5,1 km/h (1 Bft) O-NO 5,7 C 15,4 C
02.05.2013 19:00 14,7 C 46 % 1021,5 hPa 0,0 l/m 8,7 km/h (2 Bft) NO 3,2 C 14,7 C
02.05.2013 20:00 13,9 C 43 % 1021,9 hPa 0,0 l/m 7,8 km/h (2 Bft) O-NO 1,5 C 13,9 C
02.05.2013 21:00 12,9 C 42 % 1022,1 hPa 0,0 l/m 11,4 km/h (2 Bft) O-NO 0,4 C 12,9 C
02.05.2013 22:00 12,1 C 42 % 1022,4 hPa 0,0 l/m 9,1 km/h (2 Bft) NO -0,4 C 12,1 C
02.05.2013 23:00 11,5 C 42 % 1022,1 hPa 0,0 l/m 8,2 km/h (2 Bft) O-NO -1,1 C 11,5 C
03.05.2013 00:00 10,7 C 42 % 1022,1 hPa 0,0 l/m 8,8 km/h (2 Bft) O-NO -1,8 C 10,7 C
03.05.2013 01:00 9,8 C 42 % 1021,8 hPa 0,0 l/m 7,0 km/h (2 Bft) O-NO -2,4 C 9,3 C
03.05.2013 02:00 9,4 C 44 % 1021,4 hPa 0,0 l/m 5,5 km/h (1 Bft) O-NO -2,3 C 8,9 C
03.05.2013 03:00 9,1 C 41 % 1021,0 hPa 0,0 l/m 7,2 km/h (2 Bft) NO -3,6 C 8,2 C
03.05.2013 04:00 8,9 C 43 % 1020,6 hPa 0,0 l/m 5,0 km/h (1 Bft) O-NO -3,1 C 8,5 C
03.05.2013 05:00 8,5 C 48 % 1020,3 hPa 0,0 l/m 3,1 km/h (1 Bft) N-NO -1,9 C 8,3 C
03.05.2013 06:00 8,3 C 52 % 1020,2 hPa 0,0 l/m 2,9 km/h (1 Bft) N-NO -0,9 C 8,3 C
03.05.2013 07:00 8,7 C 56 % 1020,2 hPa 0,0 l/m 5,3 km/h (1 Bft) O-NO 0,5 C 8,1 C
03.05.2013 08:00 9,8 C 55 % 1020,3 hPa 0,0 l/m 4,4 km/h (1 Bft) O-SO 1,2 C 9,6 C
03.05.2013 09:00 12,4 C 48 % 1020,3 hPa 0,0 l/m 8,0 km/h (2 Bft) O-NO 1,8 C 12,4 C
03.05.2013 10:00 14,1 C 44 % 1020,3 hPa 0,0 l/m 4,0 km/h (1 Bft) O-NO 1,9 C 14,1 C
03.05.2013 11:00 16,0 C 40 % 1020,1 hPa 0,0 l/m 4,7 km/h (1 Bft) SO 2,4 C 16,0 C
03.05.2013 12:00 17,6 C 35 % 1019,6 hPa 0,0 l/m 3,8 km/h (1 Bft) O-NO 2,0 C 17,6 C
03.05.2013 13:00 18,7 C 33 % 1019,0 hPa 0,0 l/m 5,9 km/h (2 Bft) NO 2,1 C 18,7 C
03.05.2013 14:00 18,7 C 32 % 1018,5 hPa 0,0 l/m 9,2 km/h (2 Bft) NO 1,5 C 18,7 C
03.05.2013 15:00 17,8 C 32 % 1018,1 hPa 0,0 l/m 7,8 km/h (2 Bft) N-NO 0,9 C 17,8 C
03.05.2013 16:00 18,3 C 31 % 1017,9 hPa 0,0 l/m 8,6 km/h (2 Bft) N-NO 0,9 C 18,3 C
03.05.2013 17:00 17,8 C 32 % 1017,6 hPa 0,0 l/m 7,8 km/h (2 Bft) N-NO 0,8 C 17,8 C
03.05.2013 18:00 17,1 C 33 % 1017,3 hPa 0,0 l/m 4,8 km/h (1 Bft) N-NO 0,8 C 17,1 C
03.05.2013 19:00 16,8 C 34 % 1017,2 hPa 0,0 l/m 4,7 km/h (1 Bft) O-NO 0,7 C 16,8 C
03.05.2013 20:00 14,9 C 37 % 1017,1 hPa 0,0 l/m 1,6 km/h (1 Bft) N-NO 0,4 C 14,9 C
03.05.2013 21:00 12,4 C 42 % 1017,6 hPa 0,0 l/m 0,0 km/h (0 Bft) N -0,1 C 12,4 C
03.05.2013 22:00 10,0 C 51 % 1017,8 hPa 0,0 l/m 0,0 km/h (0 Bft) N 0,2 C 10,0 C
03.05.2013 23:00 8,6 C 56 % 1017,8 hPa 0,0 l/m 1,0 km/h (0 Bft) O-NO 0,4 C 8,6 C
04.05.2013 00:00 8,6 C 59 % 1017,8 hPa 0,0 l/m 3,0 km/h (1 Bft) O-SO 1,0 C 8,6 C
04.05.2013 01:00 7,6 C 61 % 1017,5 hPa 0,0 l/m 1,7 km/h (1 Bft) O-SO 0,6 C 7,6 C
04.05.2013 02:00 6,6 C 64 % 1017,4 hPa 0,0 l/m 0,5 km/h (0 Bft) SO 0,2 C 6,6 C
04.05.2013 03:00 5,4 C 67 % 1017,4 hPa 0,0 l/m 0,1 km/h (0 Bft) SO -0,2 C 5,4 C
04.05.2013 04:00 5,1 C 71 % 1017,1 hPa 0,0 l/m 0,7 km/h (0 Bft) O-SO 0,3 C 5,1 C
04.05.2013 05:00 4,6 C 74 % 1016,9 hPa 0,0 l/m 0,2 km/h (0 Bft) O-SO 0,4 C 4,6 C
04.05.2013 06:00 5,4 C 77 % 1017,1 hPa 0,0 l/m 1,4 km/h (1 Bft) SO 1,7 C 5,4 C
04.05.2013 07:00 9,2 C 68 % 1017,5 hPa 0,0 l/m 0,9 km/h (0 Bft) SO 3,5 C 9,2 C
04.05.2013 08:00 12,3 C 59 % 1017,8 hPa 0,0 l/m 2,0 km/h (1 Bft) S-SO 4,6 C 12,3 C
04.05.2013 09:00 15,5 C 53 % 1017,9 hPa 0,0 l/m 3,9 km/h (1 Bft) SO 5,8 C 15,5 C
04.05.2013 10:00 17,4 C 46 % 1018,0 hPa 0,0 l/m 5,8 km/h (1 Bft) S-SW 5,7 C 17,4 C
04.05.2013 11:00 19,5 C 38 % 1017,9 hPa 0,0 l/m 6,4 km/h (2 Bft) S-SO 4,9 C 19,5 C
04.05.2013 12:00 21,2 C 36 % 1017,6 hPa 0,0 l/m 6,9 km/h (2 Bft) S-SW 5,3 C 21,2 C
04.05.2013 13:00 21,9 C 34 % 1017,2 hPa 0,0 l/m 6,9 km/h (2 Bft) SW 5,3 C 21,9 C
04.05.2013 14:00 22,6 C 33 % 1016,9 hPa 0,0 l/m 5,1 km/h (1 Bft) S-SW 5,6 C 22,6 C
04.05.2013 15:00 23,1 C 32 % 1016,6 hPa 0,0 l/m 6,7 km/h (2 Bft) S-SW 5,6 C 23,1 C
04.05.2013 16:00 23,3 C 32 % 1016,5 hPa 0,0 l/m 6,0 km/h (2 Bft) S 5,8 C 23,3 C
04.05.2013 17:00 23,2 C 33 % 1016,4 hPa 0,0 l/m 6,5 km/h (2 Bft) S 6,0 C 23,2 C
04.05.2013 18:00 22,3 C 35 % 1016,5 hPa 0,0 l/m 6,7 km/h (2 Bft) S 6,3 C 22,3 C
04.05.2013 19:00 20,3 C 40 % 1016,7 hPa 0,0 l/m 4,2 km/h (1 Bft) S 6,3 C 20,3 C
04.05.2013 20:00 17,4 C 47 % 1017,0 hPa 0,0 l/m 2,8 km/h (1 Bft) S-SO 6,0 C 17,4 C
04.05.2013 21:00 15,0 C 55 % 1017,8 hPa 0,0 l/m 2,9 km/h (1 Bft) S 6,0 C 15,0 C
04.05.2013 22:00 13,6 C 62 % 1018,5 hPa 0,0 l/m 3,7 km/h (1 Bft) S-SO 6,4 C 13,6 C
04.05.2013 23:00 12,7 C 68 % 1019,3 hPa 0,0 l/m 6,1 km/h (2 Bft) W 7,0 C 12,7 C
05.05.2013 00:00 11,9 C 67 % 1020,1 hPa 0,0 l/m 0,9 km/h (0 Bft) N 6,0 C 11,9 C
05.05.2013 01:00 10,3 C 72 % 1020,8 hPa 0,0 l/m 0,6 km/h (0 Bft) N-NO 5,4 C 10,3 C
05.05.2013 02:00 9,3 C 73 % 1021,2 hPa 0,0 l/m 0,0 km/h (0 Bft) N 4,7 C 9,3 C
05.05.2013 03:00 7,8 C 75 % 1021,5 hPa 0,0 l/m 0,0 km/h (0 Bft) N 3,7 C 7,8 C
05.05.2013 04:00 7,4 C 79 % 1021,9 hPa 0,0 l/m 0,2 km/h (0 Bft) N-NO 4,1 C 7,4 C
05.05.2013 05:00 7,3 C 82 % 1022,6 hPa 0,0 l/m 0,1 km/h (0 Bft) W 4,4 C 7,3 C
05.05.2013 06:00 8,5 C 84 % 1023,2 hPa 0,0 l/m 0,2 km/h (0 Bft) NW 5,9 C 8,5 C
05.05.2013 07:00 12,6 C 72 % 1023,9 hPa 0,0 l/m 1,0 km/h (0 Bft) N-NW 7,7 C 12,6 C
05.05.2013 08:00 14,5 C 65 % 1024,2 hPa 0,0 l/m 1,0 km/h (0 Bft) N-NW 7,9 C 14,5 C
05.05.2013 09:00 16,4 C 56 % 1024,6 hPa 0,0 l/m 1,4 km/h (1 Bft) W-SW 7,7 C 16,4 C
05.05.2013 10:00 17,6 C 51 % 1024,8 hPa 0,0 l/m 2,2 km/h (1 Bft) W 7,4 C 17,6 C
05.05.2013 11:00 19,0 C 48 % 1024,9 hPa 0,0 l/m 4,1 km/h (1 Bft) W-SW 7,6 C 19,0 C
05.05.2013 12:00 20,6 C 45 % 1024,8 hPa 0,0 l/m 4,9 km/h (1 Bft) W-SW 8,2 C 20,6 C
05.05.2013 13:00 21,9 C 42 % 1024,7 hPa 0,0 l/m 5,6 km/h (1 Bft) W-SW 8,5 C 21,9 C
05.05.2013 14:00 23,0 C 40 % 1024,3 hPa 0,0 l/m 5,5 km/h (1 Bft) N-NO 8,7 C 23,0 C
05.05.2013 15:00 22,4 C 41 % 1024,0 hPa 0,0 l/m 2,3 km/h (1 Bft) N-NO 8,4 C 22,4 C
05.05.2013 16:00 23,9 C 38 % 1023,7 hPa 0,0 l/m 2,2 km/h (1 Bft) S-SO 8,8 C 23,9 C
05.05.2013 17:00 23,9 C 38 % 1023,5 hPa 0,0 l/m 1,8 km/h (1 Bft) W 8,7 C 23,9 C
05.05.2013 18:00 22,7 C 40 % 1023,3 hPa 0,0 l/m 1,5 km/h (1 Bft) W-NW 8,4 C 22,7 C
05.05.2013 19:00 21,3 C 43 % 1023,3 hPa 0,0 l/m 2,4 km/h (1 Bft) O-SO 8,3 C 21,3 C
05.05.2013 20:00 19,0 C 48 % 1023,4 hPa 0,0 l/m 1,8 km/h (1 Bft) SO 7,7 C 19,0 C
05.05.2013 21:00 16,6 C 57 % 1023,9 hPa 0,0 l/m 3,3 km/h (1 Bft) SO 7,9 C 16,6 C
05.05.2013 22:00 14,7 C 63 % 1024,2 hPa 0,0 l/m 2,2 km/h (1 Bft) O-SO 7,7 C 14,7 C
05.05.2013 23:00 13,7 C 66 % 1024,2 hPa 0,0 l/m 2,4 km/h (1 Bft) O-SO 7,4 C 13,7 C
Min-Datum _ 04.05.13 03.05.13 29.04.13 - 29.04.13 - 03.05.13 30.04.13
_ Min-Zeit 05:51 16:31 05:41 - 00:01 - 03:51 05:36
Minimum _ 4,3 C 29 % 1013,8 hPa - 0,0 km/h (0 Bft) - -3,9 C 4,2 C
Max-Datum _ 05.05.13 05.05.13 01.05.13 29.04.13 29.04.13 - 05.05.13 05.05.13
_ Max-Zeit 16:31 06:16 08:41 00:01 14:51 - 16:21 16:31
Maximum _ 24,6 C 85 % 1027,9 hPa 0,0 l/m 36,0 km/h
SW (5 Bft)
- 9,3 C 24,6 C
Durchschnitt _ 13,2 C 55 % 1020,9 hPa #0,0 l/m 5,0 km/h (1 Bft) O-NO 3,7 C 13,1 C
(c) by David Heller